sensor_id;sensor_type;location;lat;lon;timestamp;P1;durP1;ratioP1;P2;durP2;ratioP2
22557;SDS011;11445;53.816;8.902;2023-04-25T00:00:03;41.60;;;6.90;;
22557;SDS011;11445;53.816;8.902;2023-04-25T00:02:32;32.72;;;4.57;;
22557;SDS011;11445;53.816;8.902;2023-04-25T00:05:00;22.52;;;5.07;;
22557;SDS011;11445;53.816;8.902;2023-04-25T00:07:27;28.17;;;4.38;;
22557;SDS011;11445;53.816;8.902;2023-04-25T00:09:54;42.80;;;5.15;;
22557;SDS011;11445;53.816;8.902;2023-04-25T00:12:21;35.78;;;5.68;;
22557;SDS011;11445;53.816;8.902;2023-04-25T00:14:48;21.25;;;4.70;;
22557;SDS011;11445;53.816;8.902;2023-04-25T00:17:17;31.13;;;4.85;;
22557;SDS011;11445;53.816;8.902;2023-04-25T00:19:45;29.05;;;4.38;;
22557;SDS011;11445;53.816;8.902;2023-04-25T00:22:12;20.63;;;4.07;;
22557;SDS011;11445;53.816;8.902;2023-04-25T00:24:39;22.27;;;3.47;;
22557;SDS011;11445;53.816;8.902;2023-04-25T00:27:06;15.32;;;3.53;;
22557;SDS011;11445;53.816;8.902;2023-04-25T00:29:34;23.23;;;3.92;;
22557;SDS011;11445;53.816;8.902;2023-04-25T00:32:01;18.70;;;3.95;;
22557;SDS011;11445;53.816;8.902;2023-04-25T00:34:29;28.13;;;4.07;;
22557;SDS011;11445;53.816;8.902;2023-04-25T00:36:56;21.38;;;3.85;;
22557;SDS011;11445;53.816;8.902;2023-04-25T00:39:23;16.70;;;2.92;;
22557;SDS011;11445;53.816;8.902;2023-04-25T00:41:50;14.88;;;3.72;;
22557;SDS011;11445;53.816;8.902;2023-04-25T00:44:19;17.20;;;2.95;;
22557;SDS011;11445;53.816;8.902;2023-04-25T00:46:47;21.35;;;3.88;;
22557;SDS011;11445;53.816;8.902;2023-04-25T00:49:14;22.60;;;4.60;;
22557;SDS011;11445;53.816;8.902;2023-04-25T00:51:43;20.33;;;3.55;;
22557;SDS011;11445;53.816;8.902;2023-04-25T00:54:10;23.25;;;3.78;;
22557;SDS011;11445;53.816;8.902;2023-04-25T00:56:39;27.40;;;4.32;;
22557;SDS011;11445;53.816;8.902;2023-04-25T00:59:06;21.52;;;3.47;;
22557;SDS011;11445;53.816;8.902;2023-04-25T01:01:35;23.67;;;4.50;;
22557;SDS011;11445;53.816;8.902;2023-04-25T01:04:02;19.25;;;3.45;;
22557;SDS011;11445;53.816;8.902;2023-04-25T01:06:30;22.05;;;4.25;;
22557;SDS011;11445;53.816;8.902;2023-04-25T01:08:59;21.05;;;3.38;;
22557;SDS011;11445;53.816;8.902;2023-04-25T01:11:26;18.40;;;4.07;;
22557;SDS011;11445;53.816;8.902;2023-04-25T01:13:53;20.05;;;3.65;;
22557;SDS011;11445;53.816;8.902;2023-04-25T01:16:20;27.45;;;4.65;;
22557;SDS011;11445;53.816;8.902;2023-04-25T01:18:48;31.58;;;4.30;;
22557;SDS011;11445;53.816;8.902;2023-04-25T01:21:17;29.67;;;4.75;;
22557;SDS011;11445;53.816;8.902;2023-04-25T01:23:45;26.77;;;3.88;;
22557;SDS011;11445;53.816;8.902;2023-04-25T01:26:12;22.88;;;5.38;;
22557;SDS011;11445;53.816;8.902;2023-04-25T01:28:39;19.35;;;3.55;;
22557;SDS011;11445;53.816;8.902;2023-04-25T01:31:07;30.70;;;4.80;;
22557;SDS011;11445;53.816;8.902;2023-04-25T01:33:34;23.33;;;4.25;;
22557;SDS011;11445;53.816;8.902;2023-04-25T01:36:02;22.52;;;4.75;;
22557;SDS011;11445;53.816;8.902;2023-04-25T01:38:31;27.55;;;4.78;;
22557;SDS011;11445;53.816;8.902;2023-04-25T01:40:58;26.20;;;4.28;;
22557;SDS011;11445;53.816;8.902;2023-04-25T01:43:25;20.55;;;3.65;;
22557;SDS011;11445;53.816;8.902;2023-04-25T01:45:52;16.90;;;3.58;;
22557;SDS011;11445;53.816;8.902;2023-04-25T01:48:19;15.10;;;3.53;;
22557;SDS011;11445;53.816;8.902;2023-04-25T01:50:47;16.70;;;3.33;;
22557;SDS011;11445;53.816;8.902;2023-04-25T01:53:14;12.63;;;3.03;;
22557;SDS011;11445;53.816;8.902;2023-04-25T01:55:42;12.30;;;2.63;;
22557;SDS011;11445;53.816;8.902;2023-04-25T01:58:09;10.27;;;2.53;;
22557;SDS011;11445;53.816;8.902;2023-04-25T02:00:38;15.32;;;2.83;;
22557;SDS011;11445;53.816;8.902;2023-04-25T02:03:06;19.30;;;2.58;;
22557;SDS011;11445;53.816;8.902;2023-04-25T02:05:34;11.95;;;2.40;;
22557;SDS011;11445;53.816;8.902;2023-04-25T02:08:02;16.65;;;3.75;;
22557;SDS011;11445;53.816;8.902;2023-04-25T02:10:30;17.08;;;2.25;;
22557;SDS011;11445;53.816;8.902;2023-04-25T02:12:58;22.02;;;3.25;;
22557;SDS011;11445;53.816;8.902;2023-04-25T02:15:25;18.88;;;3.28;;
22557;SDS011;11445;53.816;8.902;2023-04-25T02:17:52;12.73;;;3.03;;
22557;SDS011;11445;53.816;8.902;2023-04-25T02:20:20;17.92;;;3.47;;
22557;SDS011;11445;53.816;8.902;2023-04-25T02:22:48;17.95;;;3.50;;
22557;SDS011;11445;53.816;8.902;2023-04-25T02:25:16;13.20;;;1.92;;
22557;SDS011;11445;53.816;8.902;2023-04-25T02:27:44;12.88;;;2.58;;
22557;SDS011;11445;53.816;8.902;2023-04-25T02:30:13;20.77;;;2.58;;
22557;SDS011;11445;53.816;8.902;2023-04-25T02:32:41;17.73;;;2.88;;
22557;SDS011;11445;53.816;8.902;2023-04-25T02:35:08;19.52;;;3.08;;
22557;SDS011;11445;53.816;8.902;2023-04-25T02:37:36;12.23;;;2.58;;
22557;SDS011;11445;53.816;8.902;2023-04-25T02:40:04;17.35;;;3.85;;
22557;SDS011;11445;53.816;8.902;2023-04-25T02:42:33;22.08;;;3.92;;
22557;SDS011;11445;53.816;8.902;2023-04-25T02:45:00;14.30;;;3.22;;
22557;SDS011;11445;53.816;8.902;2023-04-25T02:47:28;19.70;;;3.85;;
22557;SDS011;11445;53.816;8.902;2023-04-25T02:49:55;15.93;;;3.42;;
22557;SDS011;11445;53.816;8.902;2023-04-25T02:52:22;11.18;;;2.85;;
22557;SDS011;11445;53.816;8.902;2023-04-25T02:54:49;18.85;;;3.25;;
22557;SDS011;11445;53.816;8.902;2023-04-25T02:57:16;16.38;;;2.55;;
22557;SDS011;11445;53.816;8.902;2023-04-25T02:59:43;11.13;;;2.95;;
22557;SDS011;11445;53.816;8.902;2023-04-25T03:02:10;21.77;;;3.00;;
22557;SDS011;11445;53.816;8.902;2023-04-25T03:04:39;13.85;;;2.67;;
22557;SDS011;11445;53.816;8.902;2023-04-25T03:07:06;12.70;;;2.50;;
22557;SDS011;11445;53.816;8.902;2023-04-25T03:09:33;16.25;;;2.63;;
22557;SDS011;11445;53.816;8.902;2023-04-25T03:12:00;19.02;;;2.70;;
22557;SDS011;11445;53.816;8.902;2023-04-25T03:14:28;14.05;;;2.75;;
22557;SDS011;11445;53.816;8.902;2023-04-25T03:16:55;17.65;;;2.70;;
22557;SDS011;11445;53.816;8.902;2023-04-25T03:19:22;13.25;;;2.63;;
22557;SDS011;11445;53.816;8.902;2023-04-25T03:21:50;24.25;;;3.38;;
22557;SDS011;11445;53.816;8.902;2023-04-25T03:24:18;19.70;;;2.95;;
22557;SDS011;11445;53.816;8.902;2023-04-25T03:26:45;19.27;;;3.28;;
22557;SDS011;11445;53.816;8.902;2023-04-25T03:29:12;8.23;;;2.40;;
22557;SDS011;11445;53.816;8.902;2023-04-25T03:31:39;16.08;;;3.78;;
22557;SDS011;11445;53.816;8.902;2023-04-25T03:34:06;15.38;;;3.10;;
22557;SDS011;11445;53.816;8.902;2023-04-25T03:36:33;15.73;;;2.67;;
22557;SDS011;11445;53.816;8.902;2023-04-25T03:39:02;17.92;;;3.30;;
22557;SDS011;11445;53.816;8.902;2023-04-25T03:41:29;17.95;;;4.00;;
22557;SDS011;11445;53.816;8.902;2023-04-25T03:43:56;18.40;;;3.88;;
22557;SDS011;11445;53.816;8.902;2023-04-25T03:46:23;17.83;;;3.30;;
22557;SDS011;11445;53.816;8.902;2023-04-25T03:48:50;20.02;;;3.20;;
22557;SDS011;11445;53.816;8.902;2023-04-25T03:51:17;24.85;;;3.38;;
22557;SDS011;11445;53.816;8.902;2023-04-25T03:53:44;16.58;;;3.85;;
22557;SDS011;11445;53.816;8.902;2023-04-25T03:56:13;14.95;;;2.92;;
22557;SDS011;11445;53.816;8.902;2023-04-25T03:58:40;20.30;;;3.22;;
22557;SDS011;11445;53.816;8.902;2023-04-25T04:01:07;14.27;;;3.05;;
22557;SDS011;11445;53.816;8.902;2023-04-25T04:03:34;8.68;;;1.95;;
22557;SDS011;11445;53.816;8.902;2023-04-25T04:06:02;12.48;;;2.72;;
22557;SDS011;11445;53.816;8.902;2023-04-25T04:08:30;13.73;;;3.03;;
22557;SDS011;11445;53.816;8.902;2023-04-25T04:10:57;11.20;;;2.85;;
22557;SDS011;11445;53.816;8.902;2023-04-25T04:13:26;12.60;;;2.42;;
22557;SDS011;11445;53.816;8.902;2023-04-25T04:15:54;9.38;;;2.38;;
22557;SDS011;11445;53.816;8.902;2023-04-25T04:18:22;20.98;;;3.38;;
22557;SDS011;11445;53.816;8.902;2023-04-25T04:20:49;18.15;;;2.83;;
22557;SDS011;11445;53.816;8.902;2023-04-25T04:23:16;18.00;;;2.55;;
22557;SDS011;11445;53.816;8.902;2023-04-25T04:25:44;14.40;;;3.15;;
22557;SDS011;11445;53.816;8.902;2023-04-25T04:28:12;16.80;;;2.92;;
22557;SDS011;11445;53.816;8.902;2023-04-25T04:30:40;25.40;;;3.70;;
22557;SDS011;11445;53.816;8.902;2023-04-25T04:33:07;17.15;;;3.20;;
22557;SDS011;11445;53.816;8.902;2023-04-25T04:35:34;13.40;;;3.00;;
22557;SDS011;11445;53.816;8.902;2023-04-25T04:38:02;17.15;;;2.83;;
22557;SDS011;11445;53.816;8.902;2023-04-25T04:40:29;14.57;;;2.78;;
22557;SDS011;11445;53.816;8.902;2023-04-25T04:42:57;22.17;;;3.10;;
22557;SDS011;11445;53.816;8.902;2023-04-25T04:45:24;16.13;;;2.65;;
22557;SDS011;11445;53.816;8.902;2023-04-25T04:47:54;15.73;;;2.92;;
22557;SDS011;11445;53.816;8.902;2023-04-25T04:50:21;15.77;;;2.75;;
22557;SDS011;11445;53.816;8.902;2023-04-25T04:52:48;20.27;;;2.53;;
22557;SDS011;11445;53.816;8.902;2023-04-25T04:55:15;15.50;;;3.30;;
22557;SDS011;11445;53.816;8.902;2023-04-25T04:57:43;17.42;;;3.35;;
22557;SDS011;11445;53.816;8.902;2023-04-25T05:00:10;21.88;;;2.90;;
22557;SDS011;11445;53.816;8.902;2023-04-25T05:02:38;17.23;;;3.08;;
22557;SDS011;11445;53.816;8.902;2023-04-25T05:05:07;13.05;;;2.75;;
22557;SDS011;11445;53.816;8.902;2023-04-25T05:07:35;12.23;;;2.28;;
22557;SDS011;11445;53.816;8.902;2023-04-25T05:10:02;16.27;;;2.63;;
22557;SDS011;11445;53.816;8.902;2023-04-25T05:12:30;15.23;;;3.05;;
22557;SDS011;11445;53.816;8.902;2023-04-25T05:14:57;18.83;;;3.15;;
22557;SDS011;11445;53.816;8.902;2023-04-25T05:17:24;12.38;;;2.35;;
22557;SDS011;11445;53.816;8.902;2023-04-25T05:19:51;10.45;;;2.22;;
22557;SDS011;11445;53.816;8.902;2023-04-25T05:22:19;12.55;;;2.50;;
22557;SDS011;11445;53.816;8.902;2023-04-25T05:24:46;15.23;;;2.88;;
22557;SDS011;11445;53.816;8.902;2023-04-25T05:27:15;12.07;;;2.53;;
22557;SDS011;11445;53.816;8.902;2023-04-25T05:29:43;14.55;;;2.10;;
22557;SDS011;11445;53.816;8.902;2023-04-25T05:32:10;13.55;;;1.75;;
22557;SDS011;11445;53.816;8.902;2023-04-25T05:34:37;8.77;;;2.10;;
22557;SDS011;11445;53.816;8.902;2023-04-25T05:37:05;9.32;;;2.42;;
22557;SDS011;11445;53.816;8.902;2023-04-25T05:39:33;13.70;;;2.28;;
22557;SDS011;11445;53.816;8.902;2023-04-25T05:42:00;5.32;;;1.65;;
22557;SDS011;11445;53.816;8.902;2023-04-25T05:44:30;9.98;;;1.95;;
22557;SDS011;11445;53.816;8.902;2023-04-25T05:46:57;20.52;;;2.42;;
22557;SDS011;11445;53.816;8.902;2023-04-25T05:49:24;17.20;;;2.83;;
22557;SDS011;11445;53.816;8.902;2023-04-25T05:51:51;19.15;;;1.88;;
22557;SDS011;11445;53.816;8.902;2023-04-25T05:54:18;11.70;;;2.30;;
22557;SDS011;11445;53.816;8.902;2023-04-25T05:56:46;17.08;;;2.53;;
22557;SDS011;11445;53.816;8.902;2023-04-25T05:59:13;23.52;;;3.05;;
22557;SDS011;11445;53.816;8.902;2023-04-25T06:01:41;12.93;;;2.60;;
22557;SDS011;11445;53.816;8.902;2023-04-25T06:04:08;16.33;;;1.77;;
22557;SDS011;11445;53.816;8.902;2023-04-25T06:06:35;14.63;;;2.60;;
22557;SDS011;11445;53.816;8.902;2023-04-25T06:09:02;21.80;;;2.78;;
22557;SDS011;11445;53.816;8.902;2023-04-25T06:11:29;10.65;;;2.45;;
22557;SDS011;11445;53.816;8.902;2023-04-25T06:13:58;12.73;;;2.30;;
22557;SDS011;11445;53.816;8.902;2023-04-25T06:16:25;8.85;;;2.03;;
22557;SDS011;11445;53.816;8.902;2023-04-25T06:18:52;15.23;;;2.10;;
22557;SDS011;11445;53.816;8.902;2023-04-25T06:21:19;19.85;;;2.42;;
22557;SDS011;11445;53.816;8.902;2023-04-25T06:23:46;9.15;;;2.28;;
22557;SDS011;11445;53.816;8.902;2023-04-25T06:26:13;15.20;;;2.33;;
22557;SDS011;11445;53.816;8.902;2023-04-25T06:28:40;11.77;;;2.22;;
22557;SDS011;11445;53.816;8.902;2023-04-25T06:31:08;11.23;;;2.72;;
22557;SDS011;11445;53.816;8.902;2023-04-25T06:33:35;14.20;;;2.45;;
22557;SDS011;11445;53.816;8.902;2023-04-25T06:36:03;17.55;;;2.63;;
22557;SDS011;11445;53.816;8.902;2023-04-25T06:38:30;15.07;;;2.60;;
22557;SDS011;11445;53.816;8.902;2023-04-25T06:40:57;14.38;;;2.35;;
22557;SDS011;11445;53.816;8.902;2023-04-25T06:43:24;23.95;;;3.13;;
22557;SDS011;11445;53.816;8.902;2023-04-25T06:45:51;14.65;;;2.13;;
22557;SDS011;11445;53.816;8.902;2023-04-25T06:48:19;13.40;;;2.40;;
22557;SDS011;11445;53.816;8.902;2023-04-25T06:50:47;11.50;;;2.47;;
22557;SDS011;11445;53.816;8.902;2023-04-25T06:53:14;17.83;;;2.88;;
22557;SDS011;11445;53.816;8.902;2023-04-25T06:55:41;14.57;;;2.53;;
22557;SDS011;11445;53.816;8.902;2023-04-25T06:58:08;18.17;;;2.45;;
22557;SDS011;11445;53.816;8.902;2023-04-25T07:00:35;23.60;;;2.78;;
22557;SDS011;11445;53.816;8.902;2023-04-25T07:03:02;9.65;;;2.17;;
22557;SDS011;11445;53.816;8.902;2023-04-25T07:05:30;16.70;;;2.45;;
22557;SDS011;11445;53.816;8.902;2023-04-25T07:07:57;13.77;;;3.05;;
22557;SDS011;11445;53.816;8.902;2023-04-25T07:10:25;14.05;;;2.25;;
22557;SDS011;11445;53.816;8.902;2023-04-25T07:12:52;17.23;;;2.30;;
22557;SDS011;11445;53.816;8.902;2023-04-25T07:15:19;14.55;;;2.05;;
22557;SDS011;11445;53.816;8.902;2023-04-25T07:17:46;12.18;;;1.85;;
22557;SDS011;11445;53.816;8.902;2023-04-25T07:20:13;15.30;;;2.10;;
22557;SDS011;11445;53.816;8.902;2023-04-25T07:22:42;10.05;;;2.13;;
22557;SDS011;11445;53.816;8.902;2023-04-25T07:25:09;12.50;;;2.53;;
22557;SDS011;11445;53.816;8.902;2023-04-25T07:27:36;19.92;;;2.67;;
22557;SDS011;11445;53.816;8.902;2023-04-25T07:30:04;12.63;;;2.33;;
22557;SDS011;11445;53.816;8.902;2023-04-25T07:32:32;16.65;;;2.95;;
22557;SDS011;11445;53.816;8.902;2023-04-25T07:34:59;10.35;;;2.25;;
22557;SDS011;11445;53.816;8.902;2023-04-25T07:37:26;19.83;;;2.60;;
22557;SDS011;11445;53.816;8.902;2023-04-25T07:39:55;13.63;;;2.78;;
22557;SDS011;11445;53.816;8.902;2023-04-25T07:42:22;15.63;;;2.63;;
22557;SDS011;11445;53.816;8.902;2023-04-25T07:44:49;11.52;;;2.17;;
22557;SDS011;11445;53.816;8.902;2023-04-25T07:47:16;24.10;;;3.85;;
22557;SDS011;11445;53.816;8.902;2023-04-25T07:49:45;18.38;;;3.28;;
22557;SDS011;11445;53.816;8.902;2023-04-25T07:52:12;18.60;;;2.95;;
22557;SDS011;11445;53.816;8.902;2023-04-25T07:54:39;21.17;;;2.58;;
22557;SDS011;11445;53.816;8.902;2023-04-25T07:57:08;23.70;;;2.40;;
22557;SDS011;11445;53.816;8.902;2023-04-25T07:59:35;13.65;;;2.13;;
22557;SDS011;11445;53.816;8.902;2023-04-25T08:02:02;13.82;;;2.03;;
22557;SDS011;11445;53.816;8.902;2023-04-25T08:04:29;10.25;;;1.80;;
22557;SDS011;11445;53.816;8.902;2023-04-25T08:06:56;6.88;;;1.52;;
22557;SDS011;11445;53.816;8.902;2023-04-25T08:09:23;7.80;;;1.77;;
22557;SDS011;11445;53.816;8.902;2023-04-25T08:11:50;7.00;;;1.42;;
22557;SDS011;11445;53.816;8.902;2023-04-25T08:14:18;8.35;;;1.75;;
22557;SDS011;11445;53.816;8.902;2023-04-25T08:16:45;21.63;;;2.58;;
22557;SDS011;11445;53.816;8.902;2023-04-25T08:19:12;17.27;;;2.17;;
22557;SDS011;11445;53.816;8.902;2023-04-25T08:21:39;16.10;;;2.67;;
22557;SDS011;11445;53.816;8.902;2023-04-25T08:24:06;8.43;;;2.40;;
22557;SDS011;11445;53.816;8.902;2023-04-25T08:26:34;11.60;;;2.35;;
22557;SDS011;11445;53.816;8.902;2023-04-25T08:29:02;5.63;;;1.52;;
22557;SDS011;11445;53.816;8.902;2023-04-25T08:31:31;6.95;;;1.48;;
22557;SDS011;11445;53.816;8.902;2023-04-25T08:33:58;9.52;;;1.85;;
22557;SDS011;11445;53.816;8.902;2023-04-25T08:36:25;15.88;;;1.98;;
22557;SDS011;11445;53.816;8.902;2023-04-25T08:38:53;8.27;;;2.25;;
22557;SDS011;11445;53.816;8.902;2023-04-25T08:41:20;20.05;;;2.80;;
22557;SDS011;11445;53.816;8.902;2023-04-25T08:43:48;15.88;;;2.38;;
22557;SDS011;11445;53.816;8.902;2023-04-25T08:46:17;14.85;;;2.17;;
22557;SDS011;11445;53.816;8.902;2023-04-25T08:48:46;14.48;;;2.28;;
22557;SDS011;11445;53.816;8.902;2023-04-25T08:51:15;15.18;;;1.95;;
22557;SDS011;11445;53.816;8.902;2023-04-25T08:53:46;12.23;;;2.30;;
22557;SDS011;11445;53.816;8.902;2023-04-25T08:56:16;12.57;;;2.58;;
22557;SDS011;11445;53.816;8.902;2023-04-25T08:58:47;30.30;;;2.75;;
22557;SDS011;11445;53.816;8.902;2023-04-25T09:01:14;13.05;;;1.70;;
22557;SDS011;11445;53.816;8.902;2023-04-25T09:03:41;10.98;;;2.80;;
22557;SDS011;11445;53.816;8.902;2023-04-25T09:06:11;10.25;;;1.73;;
22557;SDS011;11445;53.816;8.902;2023-04-25T09:08:38;8.30;;;1.90;;
22557;SDS011;11445;53.816;8.902;2023-04-25T09:11:06;20.42;;;2.50;;
22557;SDS011;11445;53.816;8.902;2023-04-25T09:13:33;9.18;;;1.30;;
22557;SDS011;11445;53.816;8.902;2023-04-25T09:16:00;9.27;;;2.08;;
22557;SDS011;11445;53.816;8.902;2023-04-25T09:18:27;14.68;;;2.10;;
22557;SDS011;11445;53.816;8.902;2023-04-25T09:20:56;7.78;;;1.65;;
22557;SDS011;11445;53.816;8.902;2023-04-25T09:23:26;16.00;;;3.30;;
22557;SDS011;11445;53.816;8.902;2023-04-25T09:25:53;11.80;;;1.88;;
22557;SDS011;11445;53.816;8.902;2023-04-25T09:28:24;9.48;;;1.40;;
22557;SDS011;11445;53.816;8.902;2023-04-25T09:30:54;11.55;;;1.70;;
22557;SDS011;11445;53.816;8.902;2023-04-25T09:33:26;10.18;;;1.33;;
22557;SDS011;11445;53.816;8.902;2023-04-25T09:35:56;6.53;;;1.60;;
22557;SDS011;11445;53.816;8.902;2023-04-25T09:38:31;8.20;;;1.95;;
22557;SDS011;11445;53.816;8.902;2023-04-25T09:41:05;10.40;;;1.58;;
22557;SDS011;11445;53.816;8.902;2023-04-25T09:43:32;18.10;;;2.03;;
22557;SDS011;11445;53.816;8.902;2023-04-25T09:46:00;10.07;;;1.70;;
22557;SDS011;11445;53.816;8.902;2023-04-25T09:48:27;6.80;;;1.38;;
22557;SDS011;11445;53.816;8.902;2023-04-25T09:53:42;12.75;;;2.53;;
22557;SDS011;11445;53.816;8.902;2023-04-25T09:56:11;7.97;;;1.55;;
22557;SDS011;11445;53.816;8.902;2023-04-25T09:58:40;10.95;;;1.55;;
22557;SDS011;11445;53.816;8.902;2023-04-25T10:01:08;6.00;;;1.48;;
22557;SDS011;11445;53.816;8.902;2023-04-25T10:03:36;10.38;;;1.52;;
22557;SDS011;11445;53.816;8.902;2023-04-25T10:06:06;9.63;;;2.20;;
22557;SDS011;11445;53.816;8.902;2023-04-25T10:08:36;9.73;;;1.55;;
22557;SDS011;11445;53.816;8.902;2023-04-25T10:11:06;8.73;;;1.85;;
22557;SDS011;11445;53.816;8.902;2023-04-25T10:13:35;13.55;;;2.58;;
22557;SDS011;11445;53.816;8.902;2023-04-25T10:16:02;12.90;;;1.95;;
22557;SDS011;11445;53.816;8.902;2023-04-25T10:18:31;11.18;;;1.90;;
22557;SDS011;11445;53.816;8.902;2023-04-25T10:20:59;12.48;;;1.77;;
22557;SDS011;11445;53.816;8.902;2023-04-25T10:23:27;8.00;;;1.50;;
22557;SDS011;11445;53.816;8.902;2023-04-25T10:25:56;16.90;;;2.00;;
22557;SDS011;11445;53.816;8.902;2023-04-25T10:28:25;10.52;;;1.95;;
22557;SDS011;11445;53.816;8.902;2023-04-25T10:30:56;5.00;;;1.80;;
22557;SDS011;11445;53.816;8.902;2023-04-25T10:33:33;4.35;;;1.30;;
22557;SDS011;11445;53.816;8.902;2023-04-25T10:36:08;11.23;;;2.05;;
22557;SDS011;11445;53.816;8.902;2023-04-25T10:38:36;8.38;;;1.80;;
22557;SDS011;11445;53.816;8.902;2023-04-25T10:41:04;11.20;;;1.48;;
22557;SDS011;11445;53.816;8.902;2023-04-25T10:43:35;8.10;;;1.48;;
22557;SDS011;11445;53.816;8.902;2023-04-25T10:46:12;16.20;;;2.70;;
22557;SDS011;11445;53.816;8.902;2023-04-25T10:48:44;17.95;;;2.35;;
22557;SDS011;11445;53.816;8.902;2023-04-25T10:51:16;17.83;;;2.03;;
22557;SDS011;11445;53.816;8.902;2023-04-25T10:53:45;17.25;;;1.75;;
22557;SDS011;11445;53.816;8.902;2023-04-25T10:56:16;11.10;;;2.08;;
22557;SDS011;11445;53.816;8.902;2023-04-25T10:58:46;8.80;;;1.85;;
22557;SDS011;11445;53.816;8.902;2023-04-25T11:01:14;14.18;;;2.20;;
22557;SDS011;11445;53.816;8.902;2023-04-25T11:03:42;9.07;;;1.48;;
22557;SDS011;11445;53.816;8.902;2023-04-25T11:06:12;12.27;;;2.20;;
22557;SDS011;11445;53.816;8.902;2023-04-25T11:08:47;7.55;;;2.28;;
22557;SDS011;11445;53.816;8.902;2023-04-25T11:11:16;8.57;;;1.60;;
22557;SDS011;11445;53.816;8.902;2023-04-25T11:13:43;11.88;;;1.83;;
22557;SDS011;11445;53.816;8.902;2023-04-25T11:16:15;8.45;;;1.50;;
22557;SDS011;11445;53.816;8.902;2023-04-25T11:18:42;5.65;;;1.35;;
22557;SDS011;11445;53.816;8.902;2023-04-25T11:21:09;12.13;;;1.67;;
22557;SDS011;11445;53.816;8.902;2023-04-25T11:23:36;11.38;;;1.80;;
22557;SDS011;11445;53.816;8.902;2023-04-25T11:26:04;10.88;;;2.03;;
22557;SDS011;11445;53.816;8.902;2023-04-25T11:28:31;15.65;;;2.42;;
22557;SDS011;11445;53.816;8.902;2023-04-25T11:30:58;11.25;;;1.95;;
22557;SDS011;11445;53.816;8.902;2023-04-25T11:33:26;11.32;;;1.75;;
22557;SDS011;11445;53.816;8.902;2023-04-25T11:35:53;13.38;;;2.00;;
22557;SDS011;11445;53.816;8.902;2023-04-25T11:38:22;13.05;;;1.98;;
22557;SDS011;11445;53.816;8.902;2023-04-25T11:40:49;15.70;;;1.70;;
22557;SDS011;11445;53.816;8.902;2023-04-25T11:43:17;9.38;;;1.92;;
22557;SDS011;11445;53.816;8.902;2023-04-25T11:45:46;10.45;;;1.92;;
22557;SDS011;11445;53.816;8.902;2023-04-25T11:48:14;16.33;;;2.05;;
22557;SDS011;11445;53.816;8.902;2023-04-25T11:50:42;8.57;;;1.30;;
22557;SDS011;11445;53.816;8.902;2023-04-25T11:53:10;7.82;;;1.98;;
22557;SDS011;11445;53.816;8.902;2023-04-25T11:55:37;8.98;;;1.98;;
22557;SDS011;11445;53.816;8.902;2023-04-25T11:58:05;10.88;;;2.10;;
22557;SDS011;11445;53.816;8.902;2023-04-25T12:00:33;14.32;;;1.60;;
22557;SDS011;11445;53.816;8.902;2023-04-25T12:03:00;9.35;;;1.42;;
22557;SDS011;11445;53.816;8.902;2023-04-25T12:05:29;7.50;;;1.85;;
22557;SDS011;11445;53.816;8.902;2023-04-25T12:07:59;6.15;;;1.55;;
22557;SDS011;11445;53.816;8.902;2023-04-25T12:10:37;13.55;;;1.73;;
22557;SDS011;11445;53.816;8.902;2023-04-25T12:13:18;5.80;;;2.03;;
22557;SDS011;11445;53.816;8.902;2023-04-25T12:15:46;14.32;;;1.88;;
22557;SDS011;11445;53.816;8.902;2023-04-25T12:18:14;8.07;;;1.23;;
22557;SDS011;11445;53.816;8.902;2023-04-25T12:20:41;5.60;;;1.70;;
22557;SDS011;11445;53.816;8.902;2023-04-25T12:23:10;10.50;;;2.65;;
22557;SDS011;11445;53.816;8.902;2023-04-25T12:25:38;16.17;;;2.67;;
22557;SDS011;11445;53.816;8.902;2023-04-25T12:28:13;19.67;;;2.58;;
22557;SDS011;11445;53.816;8.902;2023-04-25T12:30:54;8.55;;;1.60;;
22557;SDS011;11445;53.816;8.902;2023-04-25T12:33:22;9.75;;;1.75;;
22557;SDS011;11445;53.816;8.902;2023-04-25T12:35:50;13.98;;;1.73;;
22557;SDS011;11445;53.816;8.902;2023-04-25T12:38:22;6.30;;;1.67;;
22557;SDS011;11445;53.816;8.902;2023-04-25T12:40:50;11.77;;;1.67;;
22557;SDS011;11445;53.816;8.902;2023-04-25T12:43:17;13.45;;;2.08;;
22557;SDS011;11445;53.816;8.902;2023-04-25T12:45:44;13.02;;;2.28;;
22557;SDS011;11445;53.816;8.902;2023-04-25T12:48:13;11.52;;;1.92;;
22557;SDS011;11445;53.816;8.902;2023-04-25T12:50:40;6.25;;;1.83;;
22557;SDS011;11445;53.816;8.902;2023-04-25T12:53:07;8.77;;;2.05;;
22557;SDS011;11445;53.816;8.902;2023-04-25T12:55:36;11.85;;;2.15;;
22557;SDS011;11445;53.816;8.902;2023-04-25T12:58:03;8.38;;;1.92;;
22557;SDS011;11445;53.816;8.902;2023-04-25T13:00:30;16.17;;;2.58;;
22557;SDS011;11445;53.816;8.902;2023-04-25T13:02:57;10.07;;;2.53;;
22557;SDS011;11445;53.816;8.902;2023-04-25T13:05:24;8.77;;;1.73;;
22557;SDS011;11445;53.816;8.902;2023-04-25T13:07:52;13.02;;;2.42;;
22557;SDS011;11445;53.816;8.902;2023-04-25T13:10:19;12.02;;;2.08;;
22557;SDS011;11445;53.816;8.902;2023-04-25T13:12:47;12.30;;;1.90;;
22557;SDS011;11445;53.816;8.902;2023-04-25T13:15:14;13.95;;;2.22;;
22557;SDS011;11445;53.816;8.902;2023-04-25T13:17:42;13.82;;;1.80;;
22557;SDS011;11445;53.816;8.902;2023-04-25T13:20:09;12.70;;;2.53;;
22557;SDS011;11445;53.816;8.902;2023-04-25T13:22:37;14.07;;;1.92;;
22557;SDS011;11445;53.816;8.902;2023-04-25T13:25:05;12.93;;;1.92;;
22557;SDS011;11445;53.816;8.902;2023-04-25T13:27:34;6.13;;;1.50;;
22557;SDS011;11445;53.816;8.902;2023-04-25T13:30:03;10.00;;;1.30;;
22557;SDS011;11445;53.816;8.902;2023-04-25T13:32:33;12.38;;;2.45;;
22557;SDS011;11445;53.816;8.902;2023-04-25T13:35:01;8.10;;;1.60;;
22557;SDS011;11445;53.816;8.902;2023-04-25T13:37:29;18.02;;;1.90;;
22557;SDS011;11445;53.816;8.902;2023-04-25T13:39:58;13.65;;;2.63;;
22557;SDS011;11445;53.816;8.902;2023-04-25T13:42:29;4.07;;;1.67;;
22557;SDS011;11445;53.816;8.902;2023-04-25T13:44:56;11.25;;;2.35;;
22557;SDS011;11445;53.816;8.902;2023-04-25T13:47:24;14.02;;;2.20;;
22557;SDS011;11445;53.816;8.902;2023-04-25T13:49:52;10.65;;;2.65;;
22557;SDS011;11445;53.816;8.902;2023-04-25T13:52:20;10.55;;;1.95;;
22557;SDS011;11445;53.816;8.902;2023-04-25T13:54:49;12.15;;;2.20;;
22557;SDS011;11445;53.816;8.902;2023-04-25T13:57:16;11.43;;;1.70;;
22557;SDS011;11445;53.816;8.902;2023-04-25T13:59:43;6.82;;;1.42;;
22557;SDS011;11445;53.816;8.902;2023-04-25T14:02:11;4.43;;;1.50;;
22557;SDS011;11445;53.816;8.902;2023-04-25T14:04:40;7.97;;;1.80;;
22557;SDS011;11445;53.816;8.902;2023-04-25T14:07:07;11.40;;;1.98;;
22557;SDS011;11445;53.816;8.902;2023-04-25T14:09:35;9.35;;;2.25;;
22557;SDS011;11445;53.816;8.902;2023-04-25T14:12:04;9.23;;;1.67;;
22557;SDS011;11445;53.816;8.902;2023-04-25T14:14:32;10.57;;;2.33;;
22557;SDS011;11445;53.816;8.902;2023-04-25T14:16:59;17.13;;;2.50;;
22557;SDS011;11445;53.816;8.902;2023-04-25T14:19:26;8.63;;;2.35;;
22557;SDS011;11445;53.816;8.902;2023-04-25T14:21:55;13.60;;;2.28;;
22557;SDS011;11445;53.816;8.902;2023-04-25T14:24:22;10.25;;;2.00;;
22557;SDS011;11445;53.816;8.902;2023-04-25T14:26:50;6.38;;;1.80;;
22557;SDS011;11445;53.816;8.902;2023-04-25T14:29:17;9.73;;;1.88;;
22557;SDS011;11445;53.816;8.902;2023-04-25T14:31:44;14.45;;;1.73;;
22557;SDS011;11445;53.816;8.902;2023-04-25T14:34:11;5.47;;;1.70;;
22557;SDS011;11445;53.816;8.902;2023-04-25T14:36:38;16.52;;;1.40;;
22557;SDS011;11445;53.816;8.902;2023-04-25T14:39:06;8.55;;;1.67;;
22557;SDS011;11445;53.816;8.902;2023-04-25T14:41:33;17.67;;;2.00;;
22557;SDS011;11445;53.816;8.902;2023-04-25T14:44:00;11.68;;;2.05;;